sensor_id;sensor_type;location;lat;lon;timestamp;pressure;altitude;pressure_sealevel;temperature;humidity
68525;BME280;55524;51.380;13.372;2023-05-03T00:01:29;101639.09;;;7.06;87.63
68525;BME280;55524;51.380;13.372;2023-05-03T00:03:56;101639.09;;;7.03;86.56
68525;BME280;55524;51.380;13.372;2023-05-03T00:06:22;101639.97;;;7.05;86.84
68525;BME280;55524;51.380;13.372;2023-05-03T00:08:49;101639.13;;;6.94;87.21
68525;BME280;55524;51.380;13.372;2023-05-03T00:11:15;101644.38;;;6.98;87.13
68525;BME280;55524;51.380;13.372;2023-05-03T00:13:42;101640.84;;;7.01;85.72
68525;BME280;55524;51.380;13.372;2023-05-03T00:16:08;101638.25;;;6.95;85.95
68525;BME280;55524;51.380;13.372;2023-05-03T00:18:35;101633.88;;;7.01;85.07
68525;BME280;55524;51.380;13.372;2023-05-03T00:21:01;101627.72;;;7.05;83.53
68525;BME280;55524;51.380;13.372;2023-05-03T00:23:28;101628.59;;;7.06;83.00
68525;BME280;55524;51.380;13.372;2023-05-03T00:25:57;101627.69;;;7.08;82.38
68525;BME280;55524;51.380;13.372;2023-05-03T00:28:24;101616.31;;;7.03;82.42
68525;BME280;55524;51.380;13.372;2023-05-03T00:30:52;101620.72;;;7.01;81.85
68525;BME280;55524;51.380;13.372;2023-05-03T00:33:18;101625.97;;;6.95;82.71
68525;BME280;55524;51.380;13.372;2023-05-03T00:35:44;101626.88;;;6.91;82.94
68525;BME280;55524;51.380;13.372;2023-05-03T00:38:11;101627.75;;;6.88;83.48
68525;BME280;55524;51.380;13.372;2023-05-03T00:40:40;101638.28;;;6.82;84.43
68525;BME280;55524;51.380;13.372;2023-05-03T00:43:06;101641.81;;;6.74;84.71
68525;BME280;55524;51.380;13.372;2023-05-03T00:45:33;101641.81;;;6.71;86.31
68525;BME280;55524;51.380;13.372;2023-05-03T00:48:01;101647.97;;;6.67;86.93
68525;BME280;55524;51.380;13.372;2023-05-03T00:50:27;101635.72;;;6.59;87.53
68525;BME280;55524;51.380;13.372;2023-05-03T00:52:54;101650.59;;;6.59;88.63
68525;BME280;55524;51.380;13.372;2023-05-03T00:55:21;101647.13;;;6.46;89.25
68525;BME280;55524;51.380;13.372;2023-05-03T00:57:47;101645.34;;;6.40;89.59
68525;BME280;55524;51.380;13.372;2023-05-03T01:00:14;101647.09;;;6.37;89.43
68525;BME280;55524;51.380;13.372;2023-05-03T01:02:41;101638.34;;;6.36;89.67
68525;BME280;55524;51.380;13.372;2023-05-03T01:05:07;101637.47;;;6.36;89.30
68525;BME280;55524;51.380;13.372;2023-05-03T01:08:04;101638.38;;;6.27;89.95
68525;BME280;55524;51.380;13.372;2023-05-03T01:10:41;101635.75;;;6.27;90.04
68525;BME280;55524;51.380;13.372;2023-05-03T01:13:19;101634.88;;;6.24;90.33
68525;BME280;55524;51.380;13.372;2023-05-03T01:16:01;101636.63;;;6.23;91.09
68525;BME280;55524;51.380;13.372;2023-05-03T01:18:36;101633.13;;;6.23;91.68
68525;BME280;55524;51.380;13.372;2023-05-03T01:21:05;101639.25;;;6.22;92.08
68525;BME280;55524;51.380;13.372;2023-05-03T01:26:23;101640.13;;;6.10;92.23
68525;BME280;55524;51.380;13.372;2023-05-03T01:28:51;101641.84;;;6.05;92.04
68525;BME280;55524;51.380;13.372;2023-05-03T01:31:43;101643.59;;;5.95;92.59
68525;BME280;55524;51.380;13.372;2023-05-03T01:34:22;101646.19;;;5.89;93.68
68525;BME280;55524;51.380;13.372;2023-05-03T01:36:54;101646.19;;;5.83;93.41
68525;BME280;55524;51.380;13.372;2023-05-03T01:39:37;101641.78;;;5.71;93.49
68525;BME280;55524;51.380;13.372;2023-05-03T01:42:07;101647.00;;;5.63;92.37
68525;BME280;55524;51.380;13.372;2023-05-03T01:44:34;101644.38;;;5.65;91.95
68525;BME280;55524;51.380;13.372;2023-05-03T01:47:01;101643.53;;;5.67;90.96
68525;BME280;55524;51.380;13.372;2023-05-03T01:49:28;101640.03;;;5.68;90.46
68525;BME280;55524;51.380;13.372;2023-05-03T01:51:54;101637.38;;;5.70;89.89
68525;BME280;55524;51.380;13.372;2023-05-03T01:54:20;101640.03;;;5.67;90.45
68525;BME280;55524;51.380;13.372;2023-05-03T01:56:47;101641.75;;;5.60;90.82
68525;BME280;55524;51.380;13.372;2023-05-03T01:59:13;101652.22;;;5.56;91.89
68525;BME280;55524;51.380;13.372;2023-05-03T02:01:39;101637.38;;;5.59;93.09
68525;BME280;55524;51.380;13.372;2023-05-03T02:04:06;101639.13;;;5.59;92.85
68525;BME280;55524;51.380;13.372;2023-05-03T02:06:32;101640.00;;;5.58;93.06
68525;BME280;55524;51.380;13.372;2023-05-03T02:08:58;101646.97;;;5.53;94.15
68525;BME280;55524;51.380;13.372;2023-05-03T02:11:24;101644.31;;;5.42;93.58
68525;BME280;55524;51.380;13.372;2023-05-03T02:13:51;101656.47;;;5.26;92.82
68525;BME280;55524;51.380;13.372;2023-05-03T02:16:18;101648.63;;;5.26;94.88
68525;BME280;55524;51.380;13.372;2023-05-03T02:18:44;101644.25;;;5.19;94.78
68525;BME280;55524;51.380;13.372;2023-05-03T02:21:10;101651.22;;;5.15;94.99
68525;BME280;55524;51.380;13.372;2023-05-03T02:23:38;101646.84;;;5.16;95.11
68525;BME280;55524;51.380;13.372;2023-05-03T02:26:04;101648.59;;;5.11;94.69
68525;BME280;55524;51.380;13.372;2023-05-03T02:28:31;101658.16;;;5.10;95.14
68525;BME280;55524;51.380;13.372;2023-05-03T02:30:57;101658.16;;;5.10;94.57
68525;BME280;55524;51.380;13.372;2023-05-03T02:33:24;101652.88;;;5.03;95.51
68525;BME280;55524;51.380;13.372;2023-05-03T02:35:50;101649.41;;;5.01;95.87
68525;BME280;55524;51.380;13.372;2023-05-03T02:38:16;101649.41;;;5.05;95.88
68525;BME280;55524;51.380;13.372;2023-05-03T02:40:43;101646.78;;;5.02;94.98
68525;BME280;55524;51.380;13.372;2023-05-03T02:43:09;101654.66;;;5.04;95.58
68525;BME280;55524;51.380;13.372;2023-05-03T02:45:35;101651.16;;;5.00;96.56
68525;BME280;55524;51.380;13.372;2023-05-03T02:48:02;101656.38;;;5.00;96.25
68525;BME280;55524;51.380;13.372;2023-05-03T02:50:28;101660.72;;;4.98;96.43
68525;BME280;55524;51.380;13.372;2023-05-03T02:52:55;101658.97;;;4.96;97.40
68525;BME280;55524;51.380;13.372;2023-05-03T02:55:21;101657.22;;;4.91;96.70
68525;BME280;55524;51.380;13.372;2023-05-03T02:57:48;101651.97;;;4.94;97.66
68525;BME280;55524;51.380;13.372;2023-05-03T03:00:14;101649.34;;;4.91;98.45
68525;BME280;55524;51.380;13.372;2023-05-03T03:02:41;101658.94;;;4.88;97.40
68525;BME280;55524;51.380;13.372;2023-05-03T03:05:08;101659.84;;;4.93;97.36
68525;BME280;55524;51.380;13.372;2023-05-03T03:07:36;101658.09;;;4.92;98.12
68525;BME280;55524;51.380;13.372;2023-05-03T03:10:02;101663.31;;;4.89;97.81
68525;BME280;55524;51.380;13.372;2023-05-03T03:12:29;101671.16;;;4.89;97.49
68525;BME280;55524;51.380;13.372;2023-05-03T03:14:55;101678.13;;;4.90;98.12
68525;BME280;55524;51.380;13.372;2023-05-03T03:17:21;101674.69;;;4.91;97.47
68525;BME280;55524;51.380;13.372;2023-05-03T03:19:48;101677.25;;;4.85;97.43
68525;BME280;55524;51.380;13.372;2023-05-03T03:22:14;101686.84;;;4.84;97.35
68525;BME280;55524;51.380;13.372;2023-05-03T03:24:41;101685.94;;;4.76;96.71
68525;BME280;55524;51.380;13.372;2023-05-03T03:27:07;101686.81;;;4.83;97.54
68525;BME280;55524;51.380;13.372;2023-05-03T03:29:35;101692.06;;;4.80;96.76
68525;BME280;55524;51.380;13.372;2023-05-03T03:32:01;101696.44;;;4.85;95.87
68525;BME280;55524;51.380;13.372;2023-05-03T03:34:27;101698.16;;;4.79;96.28
68525;BME280;55524;51.380;13.372;2023-05-03T03:36:55;101693.78;;;4.78;96.98
68525;BME280;55524;51.380;13.372;2023-05-03T03:39:21;101700.72;;;4.73;96.55
68525;BME280;55524;51.380;13.372;2023-05-03T03:41:47;101699.84;;;4.74;96.75
68525;BME280;55524;51.380;13.372;2023-05-03T03:44:13;101700.72;;;4.69;97.40
68525;BME280;55524;51.380;13.372;2023-05-03T03:46:40;101704.19;;;4.70;96.49
68525;BME280;55524;51.380;13.372;2023-05-03T03:49:06;101704.13;;;4.62;96.06
68525;BME280;55524;51.380;13.372;2023-05-03T03:51:33;101707.63;;;4.63;96.37
68525;BME280;55524;51.380;13.372;2023-05-03T03:53:59;101712.03;;;4.64;96.88
68525;BME280;55524;51.380;13.372;2023-05-03T03:56:25;101710.22;;;4.58;96.24
68525;BME280;55524;51.380;13.372;2023-05-03T03:58:52;101718.06;;;4.58;96.46
68525;BME280;55524;51.380;13.372;2023-05-03T04:01:18;101714.63;;;4.62;96.61
68525;BME280;55524;51.380;13.372;2023-05-03T04:03:45;101721.59;;;4.60;96.13
68525;BME280;55524;51.380;13.372;2023-05-03T04:06:12;101719.00;;;4.65;96.67
68525;BME280;55524;51.380;13.372;2023-05-03T04:08:38;101725.16;;;4.68;96.95
68525;BME280;55524;51.380;13.372;2023-05-03T04:11:09;101721.66;;;4.68;96.55
68525;BME280;55524;51.380;13.372;2023-05-03T04:13:38;101730.41;;;4.72;96.87
68525;BME280;55524;51.380;13.372;2023-05-03T04:16:06;101726.88;;;4.68;96.98
68525;BME280;55524;51.380;13.372;2023-05-03T04:18:32;101728.59;;;4.64;97.30
68525;BME280;55524;51.380;13.372;2023-05-03T04:20:59;101739.94;;;4.66;97.97
68525;BME280;55524;51.380;13.372;2023-05-03T04:23:25;101739.94;;;4.66;97.52
68525;BME280;55524;51.380;13.372;2023-05-03T04:25:51;101742.59;;;4.68;97.14
68525;BME280;55524;51.380;13.372;2023-05-03T04:28:18;101744.34;;;4.67;95.87
68525;BME280;55524;51.380;13.372;2023-05-03T04:30:45;101749.59;;;4.71;95.63
68525;BME280;55524;51.380;13.372;2023-05-03T04:33:12;101750.44;;;4.71;95.15
68525;BME280;55524;51.380;13.372;2023-05-03T04:35:39;101747.84;;;4.71;94.63
68525;BME280;55524;51.380;13.372;2023-05-03T04:38:06;101765.28;;;4.71;94.60
68525;BME280;55524;51.380;13.372;2023-05-03T04:40:34;101759.22;;;4.75;95.10
68525;BME280;55524;51.380;13.372;2023-05-03T04:43:00;101756.63;;;4.76;95.15
68525;BME280;55524;51.380;13.372;2023-05-03T04:45:26;101767.94;;;4.72;95.18
68525;BME280;55524;51.380;13.372;2023-05-03T04:47:53;101765.25;;;4.66;94.52
68525;BME280;55524;51.380;13.372;2023-05-03T04:50:19;101765.28;;;4.71;94.41
68525;BME280;55524;51.380;13.372;2023-05-03T04:52:45;101774.84;;;4.65;95.06
68525;BME280;55524;51.380;13.372;2023-05-03T04:55:12;101776.59;;;4.66;95.47
68525;BME280;55524;51.380;13.372;2023-05-03T04:57:39;101777.47;;;4.64;95.44
68525;BME280;55524;51.380;13.372;2023-05-03T05:00:06;101781.78;;;4.57;95.36
68525;BME280;55524;51.380;13.372;2023-05-03T05:02:36;101782.69;;;4.62;95.52
68525;BME280;55524;51.380;13.372;2023-05-03T05:05:03;101789.72;;;4.71;94.65
68525;BME280;55524;51.380;13.372;2023-05-03T05:07:29;101790.66;;;4.76;95.03
68525;BME280;55524;51.380;13.372;2023-05-03T05:09:56;101784.63;;;4.83;94.71
68525;BME280;55524;51.380;13.372;2023-05-03T05:12:22;101781.22;;;4.97;94.93
68525;BME280;55524;51.380;13.372;2023-05-03T05:14:49;101785.72;;;5.17;92.38
68525;BME280;55524;51.380;13.372;2023-05-03T05:17:15;101778.84;;;5.32;91.31
68525;BME280;55524;51.380;13.372;2023-05-03T05:19:41;101781.56;;;5.52;90.02
68525;BME280;55524;51.380;13.372;2023-05-03T05:22:07;101782.47;;;5.61;89.15
68525;BME280;55524;51.380;13.372;2023-05-03T05:24:34;101783.41;;;5.71;88.54
68525;BME280;55524;51.380;13.372;2023-05-03T05:27:00;101783.44;;;5.85;87.24
68525;BME280;55524;51.380;13.372;2023-05-03T05:29:26;101773.88;;;5.93;85.76
68525;BME280;55524;51.380;13.372;2023-05-03T05:31:53;101769.59;;;6.06;84.26
68525;BME280;55524;51.380;13.372;2023-05-03T05:34:19;101765.22;;;6.14;83.16
68525;BME280;55524;51.380;13.372;2023-05-03T05:36:45;101753.88;;;6.26;80.81
68525;BME280;55524;51.380;13.372;2023-05-03T05:39:12;101741.63;;;6.38;79.18
68525;BME280;55524;51.380;13.372;2023-05-03T05:41:38;101738.13;;;6.50;79.07
68525;BME280;55524;51.380;13.372;2023-05-03T05:44:04;101736.38;;;6.60;77.74
68525;BME280;55524;51.380;13.372;2023-05-03T05:46:31;101734.63;;;6.68;76.48
68525;BME280;55524;51.380;13.372;2023-05-03T05:48:57;101718.00;;;6.78;74.55
68525;BME280;55524;51.380;13.372;2023-05-03T05:51:24;101713.59;;;6.79;74.29
68525;BME280;55524;51.380;13.372;2023-05-03T05:53:50;101716.22;;;6.85;74.37
68525;BME280;55524;51.380;13.372;2023-05-03T05:56:16;101723.22;;;6.90;74.95
68525;BME280;55524;51.380;13.372;2023-05-03T05:58:43;101720.56;;;7.07;73.66
68525;BME280;55524;51.380;13.372;2023-05-03T06:01:09;101705.63;;;7.20;73.00
68525;BME280;55524;51.380;13.372;2023-05-03T06:03:35;101719.63;;;7.30;73.94
68525;BME280;55524;51.380;13.372;2023-05-03T06:06:02;101695.06;;;7.35;71.30
68525;BME280;55524;51.380;13.372;2023-05-03T06:08:28;101709.94;;;7.43;71.91
68525;BME280;55524;51.380;13.372;2023-05-03T06:10:55;101718.69;;;7.46;73.04
68525;BME280;55524;51.380;13.372;2023-05-03T06:13:21;101706.38;;;7.56;71.89
68525;BME280;55524;51.380;13.372;2023-05-03T06:15:48;101715.94;;;7.71;71.60
68525;BME280;55524;51.380;13.372;2023-05-03T06:18:14;101708.91;;;7.74;71.66
68525;BME280;55524;51.380;13.372;2023-05-03T06:20:40;101710.66;;;7.75;70.96
68525;BME280;55524;51.380;13.372;2023-05-03T06:23:07;101704.47;;;7.88;70.82
68525;BME280;55524;51.380;13.372;2023-05-03T06:25:34;101692.16;;;7.92;70.05
68525;BME280;55524;51.380;13.372;2023-05-03T06:28:03;101705.25;;;8.04;69.98
68525;BME280;55524;51.380;13.372;2023-05-03T06:30:29;101699.06;;;8.08;69.25
68525;BME280;55524;51.380;13.372;2023-05-03T06:32:56;101688.53;;;8.08;68.30
68525;BME280;55524;51.380;13.372;2023-05-03T06:35:22;101699.91;;;8.13;68.30
68525;BME280;55524;51.380;13.372;2023-05-03T06:37:48;101703.47;;;8.08;68.57
68525;BME280;55524;51.380;13.372;2023-05-03T06:40:15;101703.38;;;8.20;69.68
68525;BME280;55524;51.380;13.372;2023-05-03T06:42:41;101701.50;;;8.36;69.05
68525;BME280;55524;51.380;13.372;2023-05-03T06:45:08;101702.28;;;8.50;69.08
68525;BME280;55524;51.380;13.372;2023-05-03T06:47:34;101685.44;;;8.68;67.19
68525;BME280;55524;51.380;13.372;2023-05-03T06:50:02;101679.25;;;8.72;66.04
68525;BME280;55524;51.380;13.372;2023-05-03T06:52:28;101668.69;;;8.74;65.33
68525;BME280;55524;51.380;13.372;2023-05-03T06:54:54;101684.44;;;8.81;66.93
68525;BME280;55524;51.380;13.372;2023-05-03T06:57:21;101663.25;;;8.92;64.40
68525;BME280;55524;51.380;13.372;2023-05-03T06:59:47;101671.69;;;9.22;64.48
68525;BME280;55524;51.380;13.372;2023-05-03T07:02:14;101665.63;;;9.14;64.01
68525;BME280;55524;51.380;13.372;2023-05-03T07:04:40;101653.16;;;9.28;62.95
68525;BME280;55524;51.380;13.372;2023-05-03T07:07:06;101660.88;;;9.42;64.02
68525;BME280;55524;51.380;13.372;2023-05-03T07:09:32;101654.44;;;9.64;62.43
68525;BME280;55524;51.380;13.372;2023-05-03T07:11:59;101631.28;;;9.81;60.93
68525;BME280;55524;51.380;13.372;2023-05-03T07:14:25;101649.06;;;9.72;61.76
68525;BME280;55524;51.380;13.372;2023-05-03T07:16:52;101657.66;;;9.86;62.75
68525;BME280;55524;51.380;13.372;2023-05-03T07:19:18;101639.03;;;9.94;60.51
68525;BME280;55524;51.380;13.372;2023-05-03T07:21:44;101630.53;;;9.75;59.83
68525;BME280;55524;51.380;13.372;2023-05-03T07:24:11;101617.19;;;9.84;59.09
68525;BME280;55524;51.380;13.372;2023-05-03T07:26:38;101606.28;;;10.05;56.95
68525;BME280;55524;51.380;13.372;2023-05-03T07:29:04;101618.53;;;10.11;57.28
68525;BME280;55524;51.380;13.372;2023-05-03T07:31:31;101599.81;;;10.23;56.27
68525;BME280;55524;51.380;13.372;2023-05-03T07:33:57;101582.06;;;10.33;55.74
68525;BME280;55524;51.380;13.372;2023-05-03T07:36:23;101593.75;;;10.69;56.33
68525;BME280;55524;51.380;13.372;2023-05-03T07:38:50;101563.69;;;11.15;53.70
68525;BME280;55524;51.380;13.372;2023-05-03T07:41:16;101547.38;;;10.95;50.78
68525;BME280;55524;51.380;13.372;2023-05-03T07:43:43;101543.56;;;11.08;50.60
68525;BME280;55524;51.380;13.372;2023-05-03T07:46:09;101553.72;;;11.28;52.48
68525;BME280;55524;51.380;13.372;2023-05-03T07:48:35;101568.09;;;11.56;53.12
68525;BME280;55524;51.380;13.372;2023-05-03T07:51:03;101541.19;;;11.73;50.39
68525;BME280;55524;51.380;13.372;2023-05-03T07:53:30;101536.22;;;11.97;50.46
68525;BME280;55524;51.380;13.372;2023-05-03T07:55:56;101539.94;;;12.24;50.14
68525;BME280;55524;51.380;13.372;2023-05-03T07:58:22;101525.03;;;11.86;50.04
68525;BME280;55524;51.380;13.372;2023-05-03T08:00:49;101549.41;;;11.98;51.85
68525;BME280;55524;51.380;13.372;2023-05-03T08:03:15;101538.69;;;12.04;50.29
68525;BME280;55524;51.380;13.372;2023-05-03T08:05:41;101541.75;;;12.22;49.38
68525;BME280;55524;51.380;13.372;2023-05-03T08:08:08;101524.41;;;12.74;49.51
68525;BME280;55524;51.380;13.372;2023-05-03T08:10:35;101549.34;;;12.67;50.27
68525;BME280;55524;51.380;13.372;2023-05-03T08:13:04;101528.81;;;13.04;49.68
68525;BME280;55524;51.380;13.372;2023-05-03T08:15:33;101539.59;;;12.98;50.19
68525;BME280;55524;51.380;13.372;2023-05-03T08:18:00;101520.00;;;13.02;49.01
68525;BME280;55524;51.380;13.372;2023-05-03T08:20:26;101524.97;;;12.85;48.62
68525;BME280;55524;51.380;13.372;2023-05-03T08:22:53;101533.75;;;12.23;48.86
68525;BME280;55524;51.380;13.372;2023-05-03T08:25:22;101532.63;;;13.25;48.81
68525;BME280;55524;51.380;13.372;2023-05-03T08:27:50;101524.91;;;13.74;48.48
68525;BME280;55524;51.380;13.372;2023-05-03T08:30:16;101508.09;;;13.45;46.80
68525;BME280;55524;51.380;13.372;2023-05-03T08:32:42;101519.94;;;12.76;48.09
68525;BME280;55524;51.380;13.372;2023-05-03T08:35:09;101528.91;;;13.01;49.17
68525;BME280;55524;51.380;13.372;2023-05-03T08:37:41;101524.66;;;13.25;48.11
68525;BME280;55524;51.380;13.372;2023-05-03T08:40:09;101538.19;;;13.16;49.48
68525;BME280;55524;51.380;13.372;2023-05-03T08:42:43;101572.25;;;12.38;52.95
68525;BME280;55524;51.380;13.372;2023-05-03T08:45:14;101540.06;;;12.52;49.61
68525;BME280;55524;51.380;13.372;2023-05-03T08:47:45;101542.63;;;13.16;48.51
68525;BME280;55524;51.380;13.372;2023-05-03T08:50:12;101535.00;;;13.35;48.15
68525;BME280;55524;51.380;13.372;2023-05-03T08:52:40;101534.38;;;13.26;47.24
68525;BME280;55524;51.380;13.372;2023-05-03T08:55:07;101539.72;;;12.64;48.97
68525;BME280;55524;51.380;13.372;2023-05-03T08:57:34;101546.69;;;12.67;48.92
68525;BME280;55524;51.380;13.372;2023-05-03T09:00:02;101540.44;;;12.69;48.68
68525;BME280;55524;51.380;13.372;2023-05-03T09:02:31;101537.25;;;13.17;47.64
68525;BME280;55524;51.380;13.372;2023-05-03T09:05:01;101526.78;;;13.70;47.38
68525;BME280;55524;51.380;13.372;2023-05-03T09:07:28;101538.13;;;13.75;48.72
68525;BME280;55524;51.380;13.372;2023-05-03T09:09:54;101532.75;;;13.77;47.49
68525;BME280;55524;51.380;13.372;2023-05-03T09:12:42;101530.84;;;14.07;47.52
68525;BME280;55524;51.380;13.372;2023-05-03T09:15:20;101524.72;;;14.80;46.96
68525;BME280;55524;51.380;13.372;2023-05-03T09:18:16;101485.44;;;14.38;43.53
68525;BME280;55524;51.380;13.372;2023-05-03T09:20:44;101520.56;;;13.96;45.64
68525;BME280;55524;51.380;13.372;2023-05-03T09:23:17;101495.97;;;14.16;43.43
68525;BME280;55524;51.380;13.372;2023-05-03T09:25:49;101483.47;;;14.43;42.77
68525;BME280;55524;51.380;13.372;2023-05-03T09:28:19;101486.25;;;14.40;43.23
68525;BME280;55524;51.380;13.372;2023-05-03T09:30:46;101517.75;;;14.99;46.51
68525;BME280;55524;51.380;13.372;2023-05-03T09:33:14;101514.72;;;14.37;45.39
68525;BME280;55524;51.380;13.372;2023-05-03T09:36:00;101526.88;;;13.10;47.58
68525;BME280;55524;51.380;13.372;2023-05-03T09:38:32;101532.84;;;12.88;47.69
68525;BME280;55524;51.380;13.372;2023-05-03T09:40:59;101535.03;;;13.61;47.03
68525;BME280;55524;51.380;13.372;2023-05-03T09:43:26;101510.09;;;13.92;44.97
68525;BME280;55524;51.380;13.372;2023-05-03T09:45:52;101514.59;;;14.41;45.69
68525;BME280;55524;51.380;13.372;2023-05-03T09:48:32;101487.59;;;14.77;43.06
68525;BME280;55524;51.380;13.372;2023-05-03T09:50:58;101503.66;;;14.97;44.92
68525;BME280;55524;51.380;13.372;2023-05-03T09:53:25;101516.88;;;14.77;46.70
68525;BME280;55524;51.380;13.372;2023-05-03T09:55:52;101490.81;;;14.62;43.67
68525;BME280;55524;51.380;13.372;2023-05-03T09:58:22;101507.59;;;14.39;45.51
68525;BME280;55524;51.380;13.372;2023-05-03T10:00:50;101487.16;;;14.39;43.33
68525;BME280;55524;51.380;13.372;2023-05-03T10:04:01;101488.63;;;14.48;44.42
68525;BME280;55524;51.380;13.372;2023-05-03T10:06:12;101493.28;;;14.18;44.57
68525;BME280;55524;51.380;13.372;2023-05-03T10:08:55;101476.41;;;14.91;43.72
68525;BME280;55524;51.380;13.372;2023-05-03T10:11:27;101475.28;;;14.96;43.75
68525;BME280;55524;51.380;13.372;2023-05-03T10:13:55;101487.41;;;15.49;44.53
68525;BME280;55524;51.380;13.372;2023-05-03T10:16:28;101483.69;;;15.53;44.01
68525;BME280;55524;51.380;13.372;2023-05-03T10:19:05;101494.50;;;15.72;45.45
68525;BME280;55524;51.380;13.372;2023-05-03T10:22:02;101468.50;;;15.97;42.94
68525;BME280;55524;51.380;13.372;2023-05-03T10:24:33;101443.38;;;16.23;41.16
68525;BME280;55524;51.380;13.372;2023-05-03T10:27:00;101471.97;;;15.99;43.52
68525;BME280;55524;51.380;13.372;2023-05-03T10:35:24;101467.97;;;15.25;43.87
68525;BME280;55524;51.380;13.372;2023-05-03T10:37:48;101454.47;;;16.33;41.76
68525;BME280;55524;51.380;13.372;2023-05-03T10:40:17;101457.00;;;16.36;43.01
68525;BME280;55524;51.380;13.372;2023-05-03T10:42:49;101458.47;;;16.23;43.40
68525;BME280;55524;51.380;13.372;2023-05-03T10:45:19;101477.38;;;15.34;45.59
68525;BME280;55524;51.380;13.372;2023-05-03T10:50:36;101450.47;;;16.23;43.08
68525;BME280;55524;51.380;13.372;2023-05-03T10:53:03;101443.28;;;16.64;42.24
68525;BME280;55524;51.380;13.372;2023-05-03T10:55:29;101442.44;;;16.83;41.05
68525;BME280;55524;51.380;13.372;2023-05-03T10:57:57;101451.09;;;16.09;42.81
68525;BME280;55524;51.380;13.372;2023-05-03T11:00:36;101457.41;;;16.66;43.80
68525;BME280;55524;51.380;13.372;2023-05-03T11:03:24;101443.69;;;15.95;43.14
68525;BME280;55524;51.380;13.372;2023-05-03T11:05:53;101430.00;;;16.44;41.76
68525;BME280;55524;51.380;13.372;2023-05-03T11:08:21;101456.94;;;16.38;43.87
68525;BME280;55524;51.380;13.372;2023-05-03T11:10:49;101446.88;;;17.20;42.05
68525;BME280;55524;51.380;13.372;2023-05-03T11:13:22;101442.13;;;17.61;40.48
68525;BME280;55524;51.380;13.372;2023-05-03T11:15:48;101444.72;;;16.71;41.56
68525;BME280;55524;51.380;13.372;2023-05-03T11:18:14;101455.91;;;16.21;43.29
68525;BME280;55524;51.380;13.372;2023-05-03T11:20:41;101445.47;;;16.75;41.80
68525;BME280;55524;51.380;13.372;2023-05-03T11:23:07;101447.81;;;16.23;41.72
68525;BME280;55524;51.380;13.372;2023-05-03T11:25:34;101458.91;;;15.73;42.53
68525;BME280;55524;51.380;13.372;2023-05-03T11:28:00;101461.03;;;16.06;42.65
68525;BME280;55524;51.380;13.372;2023-05-03T11:30:28;101449.81;;;16.57;42.12
68525;BME280;55524;51.380;13.372;2023-05-03T11:32:54;101430.88;;;17.37;40.38
68525;BME280;55524;51.380;13.372;2023-05-03T11:35:21;101430.56;;;17.43;40.59
68525;BME280;55524;51.380;13.372;2023-05-03T11:37:52;101439.59;;;17.94;41.57
68525;BME280;55524;51.380;13.372;2023-05-03T11:40:22;101416.56;;;17.75;39.21
68525;BME280;55524;51.380;13.372;2023-05-03T11:42:56;101451.28;;;17.21;42.51
68525;BME280;55524;51.380;13.372;2023-05-03T11:47:51;101436.03;;;16.87;41.18
68525;BME280;55524;51.380;13.372;2023-05-03T11:50:25;101436.75;;;16.32;41.89
68525;BME280;55524;51.380;13.372;2023-05-03T11:52:53;101450.22;;;16.29;42.15
68525;BME280;55524;51.380;13.372;2023-05-03T11:55:21;101462.13;;;15.37;43.78
68525;BME280;55524;51.380;13.372;2023-05-03T11:57:47;101464.34;;;16.31;44.44
68525;BME280;55524;51.380;13.372;2023-05-03T12:00:15;101431.97;;;16.78;41.44
68525;BME280;55524;51.380;13.372;2023-05-03T12:02:48;101430.41;;;17.10;40.55
68525;BME280;55524;51.380;13.372;2023-05-03T12:05:15;101424.50;;;16.66;40.13
68525;BME280;55524;51.380;13.372;2023-05-03T12:07:42;101425.38;;;16.47;40.48
68525;BME280;55524;51.380;13.372;2023-05-03T12:10:16;101408.88;;;17.50;39.64
68525;BME280;55524;51.380;13.372;2023-05-03T12:12:54;101423.09;;;16.38;41.17
68525;BME280;55524;51.380;13.372;2023-05-03T12:15:29;101416.13;;;16.75;40.21
68525;BME280;55524;51.380;13.372;2023-05-03T12:18:01;101416.06;;;15.56;40.75
68525;BME280;55524;51.380;13.372;2023-05-03T12:20:29;101424.13;;;15.76;41.32
68525;BME280;55524;51.380;13.372;2023-05-03T12:22:58;101426.75;;;16.94;42.10
68525;BME280;55524;51.380;13.372;2023-05-03T12:25:26;101420.41;;;16.78;42.27
68525;BME280;55524;51.380;13.372;2023-05-03T12:27:53;101417.72;;;17.15;40.33
68525;BME280;55524;51.380;13.372;2023-05-03T12:30:20;101403.44;;;16.98;39.47
68525;BME280;55524;51.380;13.372;2023-05-03T12:32:47;101410.38;;;17.02;40.42
68525;BME280;55524;51.380;13.372;2023-05-03T12:35:13;101425.63;;;17.36;42.40
68525;BME280;55524;51.380;13.372;2023-05-03T12:37:39;101418.13;;;18.29;41.75
68525;BME280;55524;51.380;13.372;2023-05-03T12:40:06;101419.13;;;17.93;42.68
68525;BME280;55524;51.380;13.372;2023-05-03T12:42:33;101379.63;;;17.99;38.50
68525;BME280;55524;51.380;13.372;2023-05-03T12:45:00;101372.47;;;18.48;37.99
68525;BME280;55524;51.380;13.372;2023-05-03T12:47:26;101378.78;;;17.81;38.12
68525;BME280;55524;51.380;13.372;2023-05-03T12:49:53;101384.53;;;17.90;39.91
68525;BME280;55524;51.380;13.372;2023-05-03T12:52:22;101363.50;;;18.49;37.74
68525;BME280;55524;51.380;13.372;2023-05-03T12:54:49;101376.81;;;18.66;38.95
68525;BME280;55524;51.380;13.372;2023-05-03T12:57:16;101382.00;;;18.70;38.87
68525;BME280;55524;51.380;13.372;2023-05-03T12:59:42;101380.59;;;18.62;38.73
68525;BME280;55524;51.380;13.372;2023-05-03T13:02:12;101380.69;;;17.79;39.02
68525;BME280;55524;51.380;13.372;2023-05-03T13:04:38;101396.28;;;16.98;41.22